createdAt,value
2023-05-05T00:01:34.119Z,16.20
2023-05-05T00:04:01.500Z,13.80
2023-05-05T00:06:28.730Z,10.15
2023-05-05T00:08:56.175Z,10.88
2023-05-05T00:11:23.487Z,11.13
2023-05-05T00:13:51.476Z,11.20
2023-05-05T00:16:18.715Z,12.38
2023-05-05T00:18:45.932Z,14.60
2023-05-05T00:21:13.176Z,13.10
2023-05-05T00:23:40.339Z,19.08
2023-05-05T00:26:07.506Z,10.60
2023-05-05T00:28:34.732Z,13.60
2023-05-05T00:31:02.255Z,15.40
2023-05-05T00:33:29.508Z,14.65
2023-05-05T00:35:56.683Z,11.35
2023-05-05T00:38:23.819Z,14.30
2023-05-05T00:40:50.999Z,11.85
2023-05-05T00:43:18.136Z,19.02
2023-05-05T00:45:47.818Z,14.38
2023-05-05T00:48:16.954Z,10.60
2023-05-05T00:50:45.031Z,13.57
2023-05-05T00:53:12.254Z,16.45
2023-05-05T00:55:40.380Z,16.35
2023-05-05T00:58:07.925Z,15.00
2023-05-05T01:00:35.082Z,10.90
2023-05-05T01:03:03.166Z,11.90
2023-05-05T01:05:51.483Z,15.00
2023-05-05T01:08:46.849Z,14.40
2023-05-05T01:11:45.540Z,14.93
2023-05-05T01:14:17.503Z,13.98
2023-05-05T01:17:17.233Z,17.15
2023-05-05T01:20:25.488Z,18.67
2023-05-05T01:23:28.232Z,14.20
2023-05-05T01:26:27.154Z,12.98
2023-05-05T01:29:35.702Z,15.85
2023-05-05T01:32:15.869Z,15.60
2023-05-05T01:34:57.602Z,15.23
2023-05-05T01:37:36.832Z,11.63
2023-05-05T01:40:08.315Z,16.15
2023-05-05T01:42:40.995Z,15.38
2023-05-05T01:45:12.750Z,19.58
2023-05-05T01:47:43.300Z,13.15
2023-05-05T01:50:12.202Z,16.30
2023-05-05T01:52:42.246Z,14.85
2023-05-05T01:55:11.476Z,18.60
2023-05-05T01:57:42.520Z,16.27
2023-05-05T02:00:11.560Z,15.15
2023-05-05T02:02:41.175Z,18.80
2023-05-05T02:05:10.077Z,13.10
2023-05-05T02:07:38.197Z,19.58
2023-05-05T02:10:08.794Z,13.82
2023-05-05T02:12:37.469Z,20.88
2023-05-05T02:15:06.077Z,14.25
2023-05-05T02:17:33.422Z,16.38
2023-05-05T02:20:03.846Z,15.25
2023-05-05T02:22:31.670Z,16.00
2023-05-05T02:24:58.881Z,15.25
2023-05-05T02:27:27.972Z,15.50
2023-05-05T02:30:01.676Z,19.35
2023-05-05T02:32:37.478Z,15.63
2023-05-05T02:35:19.633Z,18.20
2023-05-05T02:37:55.210Z,21.58
2023-05-05T02:40:28.478Z,14.30
2023-05-05T02:43:00.837Z,15.10
2023-05-05T02:45:28.597Z,17.50
2023-05-05T02:47:55.978Z,12.02
2023-05-05T02:50:23.192Z,17.20
2023-05-05T02:52:50.312Z,16.10
2023-05-05T02:55:17.542Z,16.17
2023-05-05T02:57:53.563Z,11.30
2023-05-05T03:00:59.877Z,22.52
2023-05-05T03:03:44.580Z,18.48
2023-05-05T03:06:17.906Z,16.33
2023-05-05T03:09:09.611Z,13.48
2023-05-05T03:12:03.953Z,19.98
2023-05-05T03:14:38.852Z,14.82
2023-05-05T03:17:07.091Z,15.32
2023-05-05T03:19:36.978Z,16.52
2023-05-05T03:22:04.864Z,16.58
2023-05-05T03:24:32.110Z,13.35
2023-05-05T03:26:59.244Z,17.63
2023-05-05T03:29:26.706Z,15.57
2023-05-05T03:31:53.884Z,20.20
2023-05-05T03:34:21.053Z,12.27
2023-05-05T03:36:48.199Z,17.00
2023-05-05T03:39:15.334Z,23.48
2023-05-05T03:41:42.479Z,14.45
2023-05-05T03:44:09.673Z,19.42
2023-05-05T03:46:36.836Z,17.00
2023-05-05T03:49:03.990Z,15.82
2023-05-05T03:51:31.654Z,13.95
2023-05-05T03:53:58.805Z,17.75
2023-05-05T03:56:26.045Z,16.42
2023-05-05T03:58:53.183Z,13.15
2023-05-05T04:01:20.414Z,15.30
2023-05-05T04:03:47.895Z,18.45
2023-05-05T04:06:15.279Z,16.15
2023-05-05T04:08:42.404Z,13.82
2023-05-05T04:11:09.567Z,18.30
2023-05-05T04:13:36.741Z,18.23
2023-05-05T04:16:04.203Z,17.13
2023-05-05T04:18:31.841Z,18.58
2023-05-05T04:20:59.031Z,17.48
2023-05-05T04:23:26.148Z,17.75
2023-05-05T04:25:53.308Z,10.10
2023-05-05T04:28:21.741Z,16.65
2023-05-05T04:30:49.337Z,27.15
2023-05-05T04:33:16.469Z,19.60
2023-05-05T04:35:43.607Z,17.90
2023-05-05T04:38:10.762Z,19.92
2023-05-05T04:40:41.308Z,14.63
2023-05-05T04:43:08.521Z,20.20
2023-05-05T04:45:35.801Z,17.65
2023-05-05T04:48:05.027Z,14.77
2023-05-05T04:50:32.564Z,15.82
2023-05-05T04:52:59.713Z,13.45
2023-05-05T04:55:28.228Z,14.75
2023-05-05T04:57:55.432Z,17.52
2023-05-05T05:00:23.245Z,15.00
2023-05-05T05:02:50.545Z,16.15
2023-05-05T05:05:17.798Z,13.98
2023-05-05T05:07:45.866Z,15.55
2023-05-05T05:10:13.033Z,22.98
2023-05-05T05:12:40.503Z,15.70
2023-05-05T05:15:08.785Z,18.70
2023-05-05T05:17:35.981Z,21.35
2023-05-05T05:20:04.884Z,18.10
2023-05-05T05:22:32.160Z,20.27
2023-05-05T05:24:59.377Z,11.63
2023-05-05T05:27:26.534Z,15.55
2023-05-05T05:29:53.664Z,18.42
2023-05-05T05:32:20.855Z,15.15
2023-05-05T05:34:48.005Z,12.18
2023-05-05T05:37:15.174Z,18.88
2023-05-05T05:39:43.770Z,15.27
2023-05-05T05:42:11.063Z,21.45
2023-05-05T05:44:38.196Z,15.55
2023-05-05T05:47:05.521Z,15.00
2023-05-05T05:49:32.667Z,16.70
2023-05-05T05:51:59.799Z,12.73
2023-05-05T05:54:26.944Z,10.93
2023-05-05T05:56:54.092Z,17.45
2023-05-05T05:59:21.236Z,14.30
2023-05-05T06:01:48.381Z,13.88
2023-05-05T06:04:15.509Z,16.15
2023-05-05T06:06:42.731Z,13.75
2023-05-05T06:09:09.858Z,16.88
2023-05-05T06:11:37.070Z,16.83
2023-05-05T06:14:04.288Z,11.90
2023-05-05T06:16:31.685Z,15.30
2023-05-05T06:18:58.938Z,16.85
2023-05-05T06:21:26.061Z,14.65
2023-05-05T06:23:53.195Z,13.73
2023-05-05T06:26:21.459Z,11.38
2023-05-05T06:28:48.602Z,17.65
2023-05-05T06:31:15.769Z,11.68
2023-05-05T06:33:43.085Z,16.52
2023-05-05T06:36:10.271Z,13.02
2023-05-05T06:38:37.421Z,18.88
2023-05-05T06:41:04.809Z,14.95
2023-05-05T06:43:32.001Z,12.70
2023-05-05T06:45:59.144Z,16.15
2023-05-05T06:48:26.305Z,14.55
2023-05-05T06:50:53.433Z,17.92
2023-05-05T06:53:20.717Z,18.20
2023-05-05T06:55:48.156Z,17.75
2023-05-05T06:58:15.328Z,14.32
2023-05-05T07:00:42.737Z,14.02
2023-05-05T07:03:10.274Z,16.88
2023-05-05T07:05:37.479Z,22.00
2023-05-05T07:08:04.753Z,16.23
2023-05-05T07:10:32.829Z,13.63
2023-05-05T07:13:00.038Z,13.68
2023-05-05T07:15:29.567Z,14.32
2023-05-05T07:17:57.761Z,16.15
2023-05-05T07:20:25.368Z,18.55
2023-05-05T07:22:52.530Z,13.55
2023-05-05T07:25:19.871Z,12.30
2023-05-05T07:27:47.023Z,17.70
2023-05-05T07:30:18.106Z,15.57
2023-05-05T07:32:46.654Z,16.77
2023-05-05T07:35:13.955Z,12.20
2023-05-05T07:37:41.105Z,14.43
2023-05-05T07:40:09.021Z,17.67
2023-05-05T07:42:36.476Z,15.23
2023-05-05T07:45:05.189Z,11.75
2023-05-05T07:47:32.702Z,15.90
2023-05-05T07:50:00.865Z,11.10
2023-05-05T07:52:44.139Z,13.13
2023-05-05T07:55:13.552Z,16.48
2023-05-05T07:57:41.806Z,14.18
2023-05-05T08:00:10.628Z,14.00
2023-05-05T08:02:38.130Z,14.02
2023-05-05T08:05:05.957Z,16.25
2023-05-05T08:07:33.281Z,14.32
2023-05-05T08:10:00.568Z,15.05
2023-05-05T08:12:27.738Z,14.88
2023-05-05T08:14:54.871Z,10.35
2023-05-05T08:17:22.174Z,12.23
2023-05-05T08:19:52.938Z,10.70
2023-05-05T08:22:22.016Z,12.93
2023-05-05T08:24:49.141Z,14.27
2023-05-05T08:27:16.355Z,16.90
2023-05-05T08:29:43.489Z,9.77
2023-05-05T08:32:10.791Z,13.90
2023-05-05T08:34:37.949Z,13.60
2023-05-05T08:37:05.093Z,11.07
2023-05-05T08:39:32.242Z,12.77
2023-05-05T08:41:59.381Z,13.40
2023-05-05T08:44:27.214Z,14.75
2023-05-05T08:46:56.013Z,16.08
2023-05-05T08:49:25.356Z,11.65
2023-05-05T08:51:54.801Z,12.68
2023-05-05T08:54:27.283Z,11.70
2023-05-05T08:57:01.810Z,13.57
2023-05-05T08:59:33.344Z,15.02
2023-05-05T09:02:01.974Z,17.55
2023-05-05T09:04:29.283Z,14.85
2023-05-05T09:07:01.082Z,15.15
2023-05-05T09:09:29.309Z,15.77
2023-05-05T09:11:58.810Z,14.75
2023-05-05T09:14:25.970Z,13.25
2023-05-05T09:16:53.157Z,15.90
2023-05-05T09:19:20.517Z,10.52
2023-05-05T09:21:50.419Z,11.32
2023-05-05T09:24:18.612Z,17.63
2023-05-05T09:26:47.826Z,13.77
2023-05-05T09:29:22.631Z,12.93
2023-05-05T09:32:11.077Z,13.85
2023-05-05T09:34:38.289Z,15.80
2023-05-05T09:37:06.030Z,13.30
2023-05-05T09:39:33.257Z,14.43
2023-05-05T09:42:01.222Z,15.80
2023-05-05T09:44:37.533Z,11.82
2023-05-05T09:47:09.475Z,14.18
2023-05-05T09:49:42.194Z,20.13
2023-05-05T09:52:16.381Z,10.77
2023-05-05T09:54:44.056Z,12.80
2023-05-05T09:57:33.469Z,14.80
2023-05-05T10:00:04.195Z,15.30
2023-05-05T10:02:40.641Z,12.20
2023-05-05T10:05:11.334Z,14.18
2023-05-05T10:07:41.200Z,13.10
2023-05-05T10:10:12.262Z,16.23
2023-05-05T10:12:40.577Z,12.10
2023-05-05T10:15:11.066Z,15.63
2023-05-05T10:20:20.532Z,15.55
2023-05-05T10:22:53.348Z,12.57
2023-05-05T10:25:35.090Z,11.70
2023-05-05T10:28:09.621Z,15.67
2023-05-05T10:30:44.132Z,14.00
2023-05-05T10:35:57.211Z,21.02
2023-05-05T10:38:29.288Z,9.32
2023-05-05T10:40:59.174Z,14.18
2023-05-05T10:43:30.829Z,12.70
2023-05-05T10:45:59.358Z,11.55
2023-05-05T10:48:40.785Z,10.95
2023-05-05T10:51:39.460Z,11.02
2023-05-05T10:54:10.529Z,13.63
2023-05-05T10:56:41.744Z,10.07
2023-05-05T10:59:36.732Z,13.13
2023-05-05T11:02:27.211Z,10.23
2023-05-05T11:05:17.930Z,10.27
2023-05-05T11:07:47.229Z,21.58
2023-05-05T11:10:16.647Z,14.02
2023-05-05T11:12:57.687Z,10.65
2023-05-05T11:15:27.769Z,16.83
2023-05-05T11:18:07.812Z,21.48
2023-05-05T11:20:35.256Z,15.93
2023-05-05T11:23:02.293Z,11.07
2023-05-05T11:25:35.341Z,10.40
2023-05-05T11:28:14.536Z,10.70
2023-05-05T11:30:57.921Z,11.95
2023-05-05T11:33:32.338Z,13.25
2023-05-05T11:36:07.617Z,10.48
2023-05-05T11:39:08.747Z,13.93
2023-05-05T11:42:26.730Z,10.30
2023-05-05T11:44:54.890Z,13.05
2023-05-05T11:47:21.914Z,12.65
2023-05-05T11:49:49.459Z,11.30
2023-05-05T11:52:16.629Z,10.48
2023-05-05T11:54:49.039Z,12.02
2023-05-05T11:57:21.151Z,9.27
2023-05-05T12:00:01.290Z,10.68
2023-05-05T12:02:30.037Z,11.90
2023-05-05T12:04:59.253Z,15.80
2023-05-05T12:07:30.383Z,12.18
2023-05-05T12:09:58.182Z,10.95
2023-05-05T12:12:40.474Z,14.77
2023-05-05T12:15:10.159Z,15.48
2023-05-05T12:17:44.752Z,15.57
2023-05-05T12:20:13.209Z,13.77
2023-05-05T12:22:41.128Z,13.65
2023-05-05T12:25:09.627Z,13.57
2023-05-05T12:27:36.983Z,12.75
2023-05-05T12:30:16.736Z,16.30
2023-05-05T12:32:45.642Z,13.10
2023-05-05T12:35:13.835Z,9.40
2023-05-05T12:37:42.239Z,16.88
2023-05-05T12:40:49.321Z,14.63
2023-05-05T12:43:34.116Z,11.95
2023-05-05T12:46:06.916Z,12.55
2023-05-05T12:48:37.785Z,8.73
2023-05-05T12:51:23.616Z,17.80
2023-05-05T12:54:11.774Z,17.00
2023-05-05T12:56:45.421Z,8.65
2023-05-05T12:59:32.792Z,11.60
2023-05-05T13:02:01.444Z,13.68
2023-05-05T13:04:28.941Z,16.67
2023-05-05T13:07:14.556Z,18.13
2023-05-05T13:09:42.382Z,12.15
2023-05-05T13:12:12.319Z,12.20
2023-05-05T13:14:40.906Z,11.15
2023-05-05T13:17:08.302Z,16.40
2023-05-05T13:19:35.830Z,15.00
2023-05-05T13:22:03.112Z,16.85
2023-05-05T13:24:46.619Z,12.35
2023-05-05T13:27:17.426Z,12.95
2023-05-05T13:29:44.656Z,11.20
2023-05-05T13:32:11.846Z,12.82
2023-05-05T13:34:39.348Z,17.25
2023-05-05T13:37:06.816Z,13.07
2023-05-05T13:39:34.034Z,13.68
2023-05-05T13:42:01.176Z,10.30
2023-05-05T13:44:28.361Z,14.73
2023-05-05T13:46:55.559Z,10.70
2023-05-05T13:49:22.758Z,12.75
2023-05-05T13:51:49.916Z,11.38
2023-05-05T13:54:17.170Z,10.02
2023-05-05T13:56:44.342Z,9.48
2023-05-05T13:59:11.524Z,15.43
2023-05-05T14:01:39.308Z,14.32
2023-05-05T14:04:06.593Z,12.45
2023-05-05T14:06:33.964Z,13.07
2023-05-05T14:09:01.357Z,12.13
2023-05-05T14:11:28.529Z,13.98
2023-05-05T14:13:55.690Z,17.50
2023-05-05T14:16:22.861Z,14.55
2023-05-05T14:18:50.005Z,13.82
2023-05-05T14:21:17.196Z,17.50
2023-05-05T14:23:44.409Z,9.95
2023-05-05T14:26:11.607Z,8.60
2023-05-05T14:28:38.753Z,9.15
2023-05-05T14:31:06.041Z,8.25
2023-05-05T14:33:33.203Z,14.30
2023-05-05T14:36:00.360Z,17.40
2023-05-05T14:38:27.567Z,14.52
2023-05-05T14:40:54.726Z,10.10
2023-05-05T14:43:21.887Z,15.90
2023-05-05T14:45:49.043Z,13.18
2023-05-05T14:48:16.593Z,17.23
2023-05-05T14:50:46.258Z,14.60
2023-05-05T14:53:13.525Z,14.68
2023-05-05T14:55:40.738Z,13.10
2023-05-05T14:58:07.880Z,15.57
2023-05-05T15:00:35.025Z,13.02
2023-05-05T15:03:02.476Z,10.25
2023-05-05T15:05:29.666Z,11.68
2023-05-05T15:07:56.792Z,10.45
2023-05-05T15:10:23.945Z,7.57
2023-05-05T15:12:51.208Z,14.15
2023-05-05T15:15:18.392Z,10.43
2023-05-05T15:17:45.786Z,11.30
2023-05-05T15:20:13.118Z,17.63
2023-05-05T15:22:40.227Z,15.05
2023-05-05T15:25:12.060Z,10.07
2023-05-05T15:27:39.727Z,12.53
2023-05-05T15:30:07.801Z,7.18
2023-05-05T15:32:35.058Z,10.52
2023-05-05T15:35:02.295Z,10.05
2023-05-05T15:37:29.521Z,8.93
2023-05-05T15:39:56.907Z,8.35
2023-05-05T15:42:24.831Z,13.48
2023-05-05T15:44:52.376Z,8.40
2023-05-05T15:47:19.519Z,9.38
2023-05-05T15:49:46.642Z,11.25
2023-05-05T15:52:14.013Z,11.15
2023-05-05T15:54:41.436Z,12.43
2023-05-05T15:57:09.136Z,9.77
2023-05-05T15:59:36.433Z,7.10
2023-05-05T16:02:03.648Z,11.80
2023-05-05T16:04:30.959Z,16.67
2023-05-05T16:06:58.099Z,10.98
2023-05-05T16:09:25.242Z,15.80
2023-05-05T16:11:55.536Z,11.70
2023-05-05T16:14:22.728Z,11.90
2023-05-05T16:16:49.911Z,14.27
2023-05-05T16:19:18.050Z,9.40
2023-05-05T16:21:45.508Z,9.82
2023-05-05T16:24:16.316Z,12.27
2023-05-05T16:26:43.801Z,12.25
2023-05-05T16:29:11.821Z,8.38
2023-05-05T16:31:39.501Z,13.93
2023-05-05T16:34:07.018Z,11.57
2023-05-05T16:36:34.172Z,12.68
2023-05-05T16:39:01.342Z,13.18
2023-05-05T16:41:28.562Z,12.43
2023-05-05T16:43:56.225Z,16.75
2023-05-05T16:46:23.516Z,18.35
2023-05-05T16:48:50.893Z,11.05
2023-05-05T16:51:18.021Z,14.80
2023-05-05T16:56:12.964Z,13.38
2023-05-05T16:58:40.481Z,13.00
2023-05-05T17:01:07.620Z,11.35
2023-05-05T17:03:34.775Z,10.30
2023-05-05T17:06:02.018Z,8.20
2023-05-05T17:08:29.216Z,12.57
2023-05-05T17:10:56.353Z,8.93
2023-05-05T17:13:23.552Z,10.57
2023-05-05T17:15:51.400Z,9.40
2023-05-05T17:18:21.070Z,14.88
2023-05-05T17:20:49.280Z,13.98
2023-05-05T17:23:16.637Z,12.18
2023-05-05T17:25:43.885Z,13.02
2023-05-05T17:28:11.139Z,15.55
2023-05-05T17:30:38.304Z,13.13
2023-05-05T17:33:05.644Z,17.88
2023-05-05T17:35:32.899Z,16.17
2023-05-05T17:38:00.122Z,13.07
2023-05-05T17:40:27.256Z,16.38
2023-05-05T17:42:54.490Z,23.17
2023-05-05T17:45:21.640Z,18.35
2023-05-05T17:47:48.832Z,12.25
2023-05-05T17:50:16.060Z,12.32
2023-05-05T17:52:44.991Z,14.48
2023-05-05T17:55:12.723Z,22.40
2023-05-05T17:57:40.013Z,14.93
2023-05-05T18:00:08.786Z,18.55
2023-05-05T18:02:37.128Z,17.42
2023-05-05T18:05:05.321Z,15.45
2023-05-05T18:07:33.602Z,18.02
2023-05-05T18:10:00.767Z,18.65
2023-05-05T18:12:27.976Z,17.40
2023-05-05T18:14:55.156Z,16.23
2023-05-05T18:17:22.365Z,22.55
2023-05-05T18:19:49.561Z,17.83
2023-05-05T18:22:17.398Z,15.75
2023-05-05T18:24:46.373Z,18.95
2023-05-05T18:27:13.529Z,17.95
2023-05-05T18:29:40.756Z,17.90
2023-05-05T18:32:07.937Z,20.30
2023-05-05T18:34:35.132Z,24.13
2023-05-05T18:37:02.305Z,23.02
2023-05-05T18:39:29.548Z,19.98
2023-05-05T18:41:56.763Z,18.33
2023-05-05T18:44:23.957Z,20.98
2023-05-05T18:46:51.474Z,22.02
2023-05-05T18:49:18.749Z,18.60
2023-05-05T18:51:45.926Z,17.65
2023-05-05T18:54:13.060Z,19.42
2023-05-05T18:56:40.191Z,19.27
2023-05-05T18:59:07.730Z,26.30
2023-05-05T19:01:34.871Z,18.08
2023-05-05T19:04:02.051Z,25.20
2023-05-05T19:06:29.216Z,20.70
2023-05-05T19:08:56.721Z,21.17
2023-05-05T19:11:24.145Z,23.52
2023-05-05T19:13:51.344Z,25.77
2023-05-05T19:16:18.636Z,22.15
2023-05-05T19:18:45.919Z,22.50
2023-05-05T19:21:13.088Z,26.35
2023-05-05T19:23:40.899Z,22.20
2023-05-05T19:26:08.094Z,28.65
2023-05-05T19:28:35.284Z,26.73
2023-05-05T19:31:02.403Z,26.98
2023-05-05T19:33:29.550Z,25.08
2023-05-05T19:35:56.701Z,25.90
2023-05-05T19:38:23.961Z,23.85
2023-05-05T19:40:51.126Z,25.48
2023-05-05T19:43:18.284Z,22.63
2023-05-05T19:45:45.774Z,25.30
2023-05-05T19:48:12.975Z,23.75
2023-05-05T19:50:40.296Z,21.27
2023-05-05T19:53:07.437Z,23.75
2023-05-05T19:55:34.591Z,25.40
2023-05-05T19:58:01.730Z,22.55
2023-05-05T20:00:28.893Z,19.65
2023-05-05T20:02:56.165Z,19.15
2023-05-05T20:05:23.434Z,21.77
2023-05-05T20:07:50.750Z,19.27
2023-05-05T20:10:17.942Z,18.05
2023-05-05T20:12:48.258Z,19.15
2023-05-05T20:15:19.882Z,23.67
2023-05-05T20:17:48.242Z,26.60
2023-05-05T20:20:22.660Z,24.13
2023-05-05T20:22:49.868Z,22.20
2023-05-05T20:25:17.294Z,21.40
2023-05-05T20:27:45.711Z,24.48
2023-05-05T20:30:13.619Z,23.15
2023-05-05T20:32:41.348Z,23.25
2023-05-05T20:35:09.386Z,24.00
2023-05-05T20:37:36.610Z,25.42
2023-05-05T20:40:04.062Z,21.65
2023-05-05T20:42:31.278Z,22.38
2023-05-05T20:45:01.137Z,25.23
2023-05-05T20:47:28.353Z,23.65
2023-05-05T20:49:55.539Z,23.88
2023-05-05T20:52:22.761Z,21.98
2023-05-05T20:54:49.907Z,22.55
2023-05-05T20:57:17.025Z,22.77
2023-05-05T20:59:44.182Z,25.70
2023-05-05T21:02:11.386Z,27.08
2023-05-05T21:04:38.595Z,23.90
2023-05-05T21:07:06.529Z,26.73
2023-05-05T21:09:35.251Z,23.13
2023-05-05T21:12:02.500Z,20.17
2023-05-05T21:14:29.643Z,24.63
2023-05-05T21:16:56.955Z,22.65
2023-05-05T21:19:24.126Z,23.88
2023-05-05T21:21:51.282Z,22.63
2023-05-05T21:24:18.460Z,21.15
2023-05-05T21:26:45.751Z,26.33
2023-05-05T21:29:12.948Z,27.27
2023-05-05T21:31:40.552Z,23.30
2023-05-05T21:34:07.730Z,22.65
2023-05-05T21:36:34.983Z,24.02
2023-05-05T21:39:02.176Z,23.90
2023-05-05T21:41:29.318Z,23.33
2023-05-05T21:43:57.827Z,23.42
2023-05-05T21:46:25.133Z,22.13
2023-05-05T21:48:52.414Z,24.13
2023-05-05T21:51:20.018Z,22.52
2023-05-05T21:53:47.169Z,23.95
2023-05-05T21:56:14.373Z,24.98
2023-05-05T21:58:41.564Z,22.30
2023-05-05T22:01:08.774Z,25.23
2023-05-05T22:03:36.200Z,22.98
2023-05-05T22:06:03.558Z,26.20
2023-05-05T22:08:30.785Z,24.55
2023-05-05T22:10:57.989Z,23.83
2023-05-05T22:13:25.147Z,20.95
2023-05-05T22:15:52.476Z,26.75
2023-05-05T22:18:19.748Z,34.47
2023-05-05T22:20:47.090Z,23.67
2023-05-05T22:23:14.466Z,23.45
2023-05-05T22:25:41.937Z,24.25
2023-05-05T22:28:09.099Z,23.33
2023-05-05T22:30:36.305Z,24.00
2023-05-05T22:33:03.720Z,22.10
2023-05-05T22:35:31.135Z,21.80
2023-05-05T22:37:58.427Z,26.08
2023-05-05T22:40:25.618Z,22.02
2023-05-05T22:42:52.958Z,24.88
2023-05-05T22:45:21.809Z,23.67
2023-05-05T22:47:50.320Z,25.38
2023-05-05T22:50:18.200Z,26.90
2023-05-05T22:52:45.581Z,25.25
2023-05-05T22:55:14.499Z,23.00
2023-05-05T22:57:42.317Z,23.48
2023-05-05T23:00:10.669Z,22.92
2023-05-05T23:02:38.653Z,22.95
2023-05-05T23:05:06.626Z,23.33
2023-05-05T23:07:34.623Z,21.52
2023-05-05T23:10:03.110Z,20.48
2023-05-05T23:12:30.586Z,20.88
2023-05-05T23:14:57.730Z,23.38
2023-05-05T23:17:24.904Z,22.92
2023-05-05T23:19:52.109Z,20.13
2023-05-05T23:22:19.373Z,22.30
2023-05-05T23:24:46.559Z,20.80
2023-05-05T23:27:13.698Z,17.80
2023-05-05T23:29:40.841Z,19.17
2023-05-05T23:32:08.259Z,19.23
2023-05-05T23:34:35.381Z,18.13
2023-05-05T23:37:04.065Z,18.95
2023-05-05T23:39:34.600Z,18.20
2023-05-05T23:42:01.725Z,19.85
2023-05-05T23:44:28.881Z,20.40
2023-05-05T23:46:56.029Z,21.15
2023-05-05T23:49:24.893Z,19.40
2023-05-05T23:51:52.788Z,18.85
2023-05-05T23:54:19.981Z,18.20
2023-05-05T23:56:49.946Z,19.65
2023-05-05T23:59:17.146Z,21.45
